Time;durP1;ratioP1;P1;durP2;ratioP2;P2;SDS_P1;SDS_P2;PMS_P1;PMS_P2;Temp;Humidity;BMP_temperature;BMP_pressure;BME280_temperature;BME280_humidity;BME280_pressure;Samples;Min_cycle;Max_cycle;Signal;HPM_P1;HPM_P2
2022/07/05 00:01:44;;;;;;;0.73;0.73;;;;;17.90;98592.00;;;;5116155;28;20232;-72
2022/07/05 00:04:13;;;;;;;1.40;1.40;;;;;17.90;98592.00;;;;5116105;28;20190;-70
2022/07/05 00:09:26;;;;;;;0.50;0.50;;;;;17.80;98594.00;;;;5115361;28;20206;-69
2022/07/05 00:11:55;;;;;;;0.90;0.90;;;;;17.80;98591.00;;;;5115876;28;20210;-70
2022/07/05 00:14:23;;;;;;;0.70;0.70;;;;;17.90;98592.00;;;;5115773;28;20221;-70
2022/07/05 00:16:50;;;;;;;0.40;0.40;;;;;17.90;98589.00;;;;5115880;28;20195;-70
2022/07/05 00:19:17;;;;;;;0.67;0.67;;;;;18.00;98589.00;;;;5115843;28;20193;-70
2022/07/05 00:21:43;;;;;;;0.63;0.63;;;;;17.90;98589.00;;;;5115524;28;20232;-70
2022/07/05 00:24:10;;;;;;;0.50;0.50;;;;;17.80;98598.00;;;;5114845;28;20197;-70
2022/07/05 00:26:37;;;;;;;0.40;0.40;;;;;17.90;98600.00;;;;5115934;28;20197;-69
2022/07/05 00:29:04;;;;;;;0.83;0.83;;;;;17.80;98590.00;;;;5115585;28;20222;-70
2022/07/05 00:31:31;;;;;;;0.80;0.80;;;;;17.80;98589.00;;;;5115688;28;20212;-69
2022/07/05 00:33:58;;;;;;;0.57;0.57;;;;;17.80;98593.00;;;;5115555;28;20212;-69
2022/07/05 00:36:28;;;;;;;0.70;0.70;;;;;17.60;98606.00;;;;5115545;28;20628;-69
2022/07/05 00:38:57;;;;;;;0.60;0.60;;;;;17.60;98596.00;;;;5097513;28;20262;-69
2022/07/05 00:41:24;;;;;;;0.60;0.60;;;;;17.50;98592.00;;;;5115345;28;20230;-69
2022/07/05 00:43:56;;;;;;;1.23;1.23;;;;;17.50;98590.00;;;;5115420;28;20186;-69
2022/07/05 00:46:24;;;;;;;0.73;0.73;;;;;17.40;98584.00;;;;5115332;28;20198;-70
2022/07/05 00:48:51;;;;;;;2.03;1.00;;;;;17.30;98591.00;;;;5115435;28;20218;-69
2022/07/05 00:51:20;;;;;;;0.70;0.70;;;;;17.20;98593.00;;;;5115387;28;20186;-69
2022/07/05 00:53:50;;;;;;;0.80;0.80;;;;;17.10;98591.00;;;;5115049;28;20532;-68
2022/07/05 00:56:19;;;;;;;2.30;1.87;;;;;17.30;98591.00;;;;5115221;28;20217;-70
2022/07/05 00:58:46;;;;;;;0.60;0.60;;;;;17.20;98591.00;;;;5116627;28;20199;-69
2022/07/05 01:01:13;;;;;;;0.53;0.53;;;;;17.30;98594.00;;;;5115383;28;20229;-70
2022/07/05 01:03:40;;;;;;;0.93;0.93;;;;;17.20;98606.00;;;;5114912;28;20217;-69
2022/07/05 01:06:10;;;;;;;0.60;0.60;;;;;17.00;98602.00;;;;5114962;28;20202;-69
2022/07/05 01:08:39;;;;;;;0.50;0.50;;;;;17.10;98596.00;;;;5114785;28;20236;-69
2022/07/05 01:11:07;;;;;;;0.83;0.83;;;;;17.10;98601.00;;;;5114851;28;20190;-70
2022/07/05 01:13:35;;;;;;;0.90;0.90;;;;;17.20;98599.00;;;;5114792;28;20197;-69
2022/07/05 01:16:02;;;;;;;0.70;0.70;;;;;17.20;98597.00;;;;5096948;28;20271;-71
2022/07/05 01:18:31;;;;;;;0.63;0.63;;;;;17.10;98603.00;;;;5114960;28;20190;-69
2022/07/05 01:21:01;;;;;;;0.60;0.60;;;;;16.90;98605.00;;;;5096714;28;20669;-69
2022/07/05 01:23:29;;;;;;;0.93;0.80;;;;;17.00;98602.00;;;;5114583;28;20240;-70
2022/07/05 01:25:58;;;;;;;0.50;0.50;;;;;17.10;98598.00;;;;5114717;28;20205;-70
2022/07/05 01:28:25;;;;;;;0.60;0.60;;;;;17.00;98601.00;;;;5114657;28;20210;-69
2022/07/05 01:30:53;;;;;;;0.90;0.90;;;;;17.10;98594.00;;;;5114742;28;20194;-69
2022/07/05 01:33:26;;;;;;;0.73;0.73;;;;;17.20;98593.00;;;;5114536;28;20190;-69
2022/07/05 01:35:53;;;;;;;0.60;0.60;;;;;17.20;98596.00;;;;5114552;28;20190;-69
2022/07/05 01:38:20;;;;;;;0.90;0.90;;;;;17.10;98597.00;;;;5114533;28;20182;-69
2022/07/05 01:40:51;;;;;;;0.80;0.80;;;;;16.90;98591.00;;;;5114741;28;20221;-69
2022/07/05 01:43:18;;;;;;;0.60;0.60;;;;;16.90;98602.00;;;;5114676;28;20217;-70
2022/07/05 01:45:47;;;;;;;1.00;1.00;;;;;16.90;98600.00;;;;5096581;28;20198;-69
2022/07/05 01:48:19;;;;;;;0.90;0.90;;;;;16.90;98606.00;;;;5114391;28;20222;-69
2022/07/05 01:50:51;;;;;;;0.73;0.73;;;;;16.80;98605.00;;;;5114290;28;20194;-69
2022/07/05 01:53:20;;;;;;;0.93;0.93;;;;;16.70;98600.00;;;;5114289;28;20202;-70
2022/07/05 01:55:48;;;;;;;0.40;0.40;;;;;16.70;98597.00;;;;5114343;28;20281;-70
2022/07/05 01:58:17;;;;;;;0.60;0.60;;;;;16.70;98597.00;;;;5114298;28;20202;-69
2022/07/05 02:00:48;;;;;;;0.67;0.67;;;;;16.70;98611.00;;;;5114080;28;20572;-70
2022/07/05 02:03:16;;;;;;;0.50;0.50;;;;;16.40;98604.00;;;;5114237;28;20336;-70
2022/07/05 02:05:46;;;;;;;0.77;0.77;;;;;16.40;98601.00;;;;5114116;28;20637;-70
2022/07/05 02:08:17;;;;;;;0.60;0.60;;;;;16.30;98611.00;;;;5113995;28;20214;-70
2022/07/05 02:10:44;;;;;;;0.70;0.70;;;;;16.20;98599.00;;;;5114185;28;20193;-70
2022/07/05 02:13:12;;;;;;;1.00;0.97;;;;;16.10;98607.00;;;;5114217;28;20201;-70
2022/07/05 02:15:41;;;;;;;0.77;0.77;;;;;16.10;98602.00;;;;5114020;28;20255;-70
2022/07/05 02:18:08;;;;;;;1.17;1.13;;;;;16.30;98602.00;;;;5114091;28;20186;-70
2022/07/05 02:20:37;;;;;;;0.70;0.70;;;;;16.20;98596.00;;;;5113927;28;20232;-70
2022/07/05 02:23:04;;;;;;;0.70;0.70;;;;;16.10;98585.00;;;;5113905;28;20232;-70
2022/07/05 02:25:31;;;;;;;0.53;0.53;;;;;16.20;98594.00;;;;5113930;28;20206;-70
2022/07/05 02:27:58;;;;;;;0.57;0.57;;;;;16.20;98591.00;;;;5113809;28;20346;-70
2022/07/05 02:30:26;;;;;;;0.90;0.90;;;;;16.20;98585.00;;;;5113881;28;20201;-70
2022/07/05 02:32:52;;;;;;;8.53;1.10;;;;;16.20;98593.00;;;;5113905;28;20801;-70
2022/07/05 02:35:19;;;;;;;0.60;0.60;;;;;16.20;98589.00;;;;5113781;28;20210;-70
2022/07/05 02:37:46;;;;;;;0.93;0.93;;;;;16.10;98588.00;;;;5113813;28;20198;-70
2022/07/05 02:40:14;;;;;;;0.70;0.70;;;;;16.20;98595.00;;;;5095809;28;20221;-70
2022/07/05 02:42:43;;;;;;;0.50;0.50;;;;;16.30;98598.00;;;;5113719;28;20229;-70
2022/07/05 02:45:12;;;;;;;1.07;1.07;;;;;16.20;98600.00;;;;5113866;28;20194;-70
2022/07/05 02:47:40;;;;;;;0.80;0.80;;;;;16.10;98603.00;;;;5115182;28;20308;-70
2022/07/05 02:50:08;;;;;;;0.83;0.83;;;;;16.00;98603.00;;;;5117280;28;20198;-68
2022/07/05 02:52:35;;;;;;;0.73;0.73;;;;;16.10;98603.00;;;;5117253;28;20267;-70
2022/07/05 02:55:06;;;;;;;0.63;0.63;;;;;16.00;98603.00;;;;5118526;28;20194;-70
2022/07/05 02:57:32;;;;;;;0.60;0.60;;;;;16.00;98604.00;;;;5117484;28;20217;-70
2022/07/05 02:59:59;;;;;;;0.63;0.63;;;;;16.00;98608.00;;;;5117027;28;20202;-70
2022/07/05 03:02:26;;;;;;;0.60;0.60;;;;;15.90;98617.00;;;;5117004;28;20227;-69
2022/07/05 03:04:54;;;;;;;0.50;0.50;;;;;15.90;98619.00;;;;5117225;28;20652;-69
2022/07/05 03:07:20;;;;;;;0.60;0.60;;;;;15.80;98607.00;;;;5116876;28;20222;-70
2022/07/05 03:09:47;;;;;;;0.70;0.70;;;;;15.80;98605.00;;;;5117019;28;20212;-70
2022/07/05 03:12:14;;;;;;;0.60;0.60;;;;;15.70;98605.00;;;;5116855;28;20198;-70
2022/07/05 03:14:41;;;;;;;0.47;0.47;;;;;15.60;98605.00;;;;5116729;28;20213;-69
2022/07/05 03:17:08;;;;;;;2.93;1.30;;;;;15.80;98610.00;;;;5116687;28;20214;-69
2022/07/05 03:19:35;;;;;;;0.60;0.60;;;;;15.50;98605.00;;;;5116615;28;20276;-70
2022/07/05 03:22:04;;;;;;;0.60;0.60;;;;;15.50;98606.00;;;;5116637;28;20222;-70
2022/07/05 03:24:31;;;;;;;0.73;0.73;;;;;15.40;98608.00;;;;5116598;28;20212;-70
2022/07/05 03:27:00;;;;;;;0.80;0.80;;;;;15.40;98612.00;;;;5116512;28;20218;-70
2022/07/05 03:29:27;;;;;;;0.70;0.70;;;;;15.50;98615.00;;;;5081752;28;20205;-71
2022/07/05 03:31:54;;;;;;;2.43;1.90;;;;;15.70;98609.00;;;;5116570;28;20190;-71
2022/07/05 03:34:21;;;;;;;0.70;0.70;;;;;15.70;98603.00;;;;5116451;28;20220;-70
2022/07/05 03:36:48;;;;;;;1.80;1.13;;;;;15.70;98610.00;;;;5116405;28;20198;-71
2022/07/05 03:39:15;;;;;;;1.03;1.03;;;;;15.60;98618.00;;;;5116479;28;20221;-71
2022/07/05 03:41:42;;;;;;;0.63;0.63;;;;;15.40;98606.00;;;;5116279;28;20208;-71
2022/07/05 03:44:09;;;;;;;0.77;0.77;;;;;15.40;98612.00;;;;5116429;28;20206;-70
2022/07/05 03:46:36;;;;;;;0.60;0.60;;;;;15.30;98619.00;;;;5116186;28;20218;-71
2022/07/05 03:49:03;;;;;;;0.90;0.90;;;;;15.30;98620.00;;;;5116327;28;20633;-69
2022/07/05 03:51:30;;;;;;;1.10;1.10;;;;;15.30;98622.00;;;;5116208;28;20221;-69
2022/07/05 03:53:56;;;;;;;0.60;0.60;;;;;15.30;98630.00;;;;5116185;28;20226;-69
2022/07/05 03:56:24;;;;;;;2.00;1.90;;;;;15.40;98638.00;;;;5116198;28;20198;-69
2022/07/05 03:58:52;;;;;;;0.50;0.50;;;;;15.40;98640.00;;;;5114650;28;20614;-69
2022/07/05 04:01:19;;;;;;;0.50;0.50;;;;;15.60;98647.00;;;;5116047;28;20224;-71
2022/07/05 04:03:45;;;;;;;0.70;0.70;;;;;15.50;98648.00;;;;5115838;28;20218;-71
2022/07/05 04:06:15;;;;;;;0.60;0.60;;;;;15.50;98655.00;;;;5115882;28;20190;-71
2022/07/05 04:08:44;;;;;;;0.70;0.70;;;;;15.60;98646.00;;;;5116048;28;20574;-70
2022/07/05 04:11:12;;;;;;;0.73;0.73;;;;;15.60;98649.00;;;;5115991;28;20202;-70
2022/07/05 04:13:40;;;;;;;0.93;0.93;;;;;15.60;98655.00;;;;5115843;28;20218;-69
2022/07/05 04:16:07;;;;;;;0.80;0.80;;;;;15.50;98658.00;;;;5115808;28;20189;-70
2022/07/05 04:18:34;;;;;;;0.57;0.57;;;;;15.50;98655.00;;;;5115722;28;20585;-69
2022/07/05 04:21:00;;;;;;;0.70;0.70;;;;;15.60;98658.00;;;;5115775;28;20210;-70
2022/07/05 04:23:29;;;;;;;0.60;0.60;;;;;15.70;98663.00;;;;5115736;28;20229;-70
2022/07/05 04:25:57;;;;;;;0.70;0.70;;;;;15.70;98667.00;;;;5115594;28;20213;-70
2022/07/05 04:28:23;;;;;;;0.70;0.70;;;;;15.80;98665.00;;;;5115599;28;20281;-70
2022/07/05 04:30:53;;;;;;;0.77;0.77;;;;;15.70;98667.00;;;;5115615;28;20194;-70
2022/07/05 04:33:20;;;;;;;1.20;0.90;;;;;15.70;98675.00;;;;5115491;28;20226;-70
2022/07/05 04:35:47;;;;;;;1.93;1.53;;;;;15.80;98678.00;;;;5115541;28;20697;-70
2022/07/05 04:38:13;;;;;;;0.50;0.50;;;;;15.70;98665.00;;;;5115543;28;20204;-70
2022/07/05 04:40:41;;;;;;;0.63;0.63;;;;;15.70;98671.00;;;;5115413;28;20210;-70
2022/07/05 04:43:07;;;;;;;0.93;0.93;;;;;15.70;98661.00;;;;5115569;28;20245;-70
2022/07/05 04:45:34;;;;;;;1.07;0.97;;;;;15.70;98670.00;;;;5115383;28;20205;-70
2022/07/05 04:48:02;;;;;;;0.97;0.87;;;;;15.80;98669.00;;;;5097398;28;20514;-71
2022/07/05 04:50:29;;;;;;;0.70;0.70;;;;;15.80;98664.00;;;;5115343;28;20186;-70
2022/07/05 04:52:56;;;;;;;0.50;0.50;;;;;15.90;98672.00;;;;5115243;28;20233;-70
2022/07/05 04:55:23;;;;;;;0.90;0.90;;;;;16.00;98678.00;;;;5115329;28;20206;-70
2022/07/05 04:57:49;;;;;;;1.53;1.43;;;;;16.10;98678.00;;;;5099059;28;20584;-71
2022/07/05 05:00:16;;;;;;;0.60;0.60;;;;;16.10;98683.00;;;;5115791;28;20218;-70
2022/07/05 05:02:43;;;;;;;0.70;0.70;;;;;16.20;98678.00;;;;5115007;28;20205;-70
2022/07/05 05:05:11;;;;;;;0.80;0.80;;;;;16.20;98678.00;;;;5114982;28;20206;-71
2022/07/05 05:07:41;;;;;;;0.93;0.93;;;;;16.10;98673.00;;;;5096946;28;20507;-72
2022/07/05 05:10:08;;;;;;;0.60;0.60;;;;;16.20;98680.00;;;;5114628;28;20201;-70
2022/07/05 05:12:35;;;;;;;0.90;0.90;;;;;16.20;98676.00;;;;5114770;28;20652;-70
2022/07/05 05:15:03;;;;;;;0.87;0.87;;;;;16.30;98677.00;;;;5115040;28;20198;-70
2022/07/05 05:17:36;;;;;;;0.80;0.80;;;;;16.40;98680.00;;;;5115189;28;20205;-70
2022/07/05 05:20:04;;;;;;;0.90;0.90;;;;;16.40;98674.00;;;;5096982;28;20233;-70
2022/07/05 05:22:31;;;;;;;0.70;0.70;;;;;16.50;98691.00;;;;5114767;28;20214;-70
2022/07/05 05:24:58;;;;;;;0.50;0.50;;;;;16.60;98683.00;;;;5114751;28;20208;-70
2022/07/05 05:27:25;;;;;;;0.70;0.70;;;;;16.70;98682.00;;;;5114572;28;20229;-70
2022/07/05 05:29:52;;;;;;;0.70;0.70;;;;;16.80;98676.00;;;;5114809;28;20198;-70
2022/07/05 05:32:21;;;;;;;0.97;0.93;;;;;16.80;98683.00;;;;5114716;28;20197;-70
2022/07/05 05:34:48;;;;;;;0.70;0.70;;;;;16.90;98681.00;;;;5114588;28;20542;-70
2022/07/05 05:37:15;;;;;;;0.63;0.63;;;;;17.00;98682.00;;;;5114578;28;20214;-69
2022/07/05 05:39:42;;;;;;;0.73;0.73;;;;;17.10;98677.00;;;;5114495;28;20221;-71
2022/07/05 05:42:09;;;;;;;0.50;0.50;;;;;17.10;98678.00;;;;5114486;28;20205;-73
2022/07/05 05:44:36;;;;;;;0.47;0.47;;;;;17.10;98679.00;;;;5114492;28;20210;-72
2022/07/05 05:47:03;;;;;;;0.53;0.53;;;;;17.20;98685.00;;;;5114229;28;20218;-70
2022/07/05 05:49:32;;;;;;;0.87;0.87;;;;;17.40;98674.00;;;;5114353;28;20233;-71
2022/07/05 05:51:59;;;;;;;0.67;0.67;;;;;17.60;98682.00;;;;5114434;28;20198;-71
2022/07/05 05:54:26;;;;;;;0.67;0.67;;;;;17.70;98688.00;;;;5114333;28;20202;-71
2022/07/05 05:56:54;;;;;;;0.67;0.67;;;;;17.80;98689.00;;;;5114302;28;20190;-71
2022/07/05 05:59:20;;;;;;;0.60;0.60;;;;;17.80;98684.00;;;;5113993;28;20222;-71
2022/07/05 06:01:47;;;;;;;1.50;1.40;;;;;18.00;98684.00;;;;5114357;28;20703;-70
2022/07/05 06:04:14;;;;;;;0.63;0.63;;;;;18.10;98691.00;;;;5114157;28;20438;-71
2022/07/05 06:06:41;;;;;;;0.37;0.37;;;;;18.00;98690.00;;;;5114127;28;20218;-71
2022/07/05 06:09:10;;;;;;;1.33;1.23;;;;;18.10;98690.00;;;;5114121;28;20193;-71
2022/07/05 06:11:37;;;;;;;0.40;0.40;;;;;18.10;98694.00;;;;5114201;28;20201;-71
2022/07/05 06:14:04;;;;;;;4.13;0.80;;;;;18.10;98702.00;;;;5114128;28;20190;-71
2022/07/05 06:16:33;;;;;;;2.10;0.90;;;;;18.20;98699.00;;;;5113975;28;20198;-71
2022/07/05 06:19:01;;;;;;;0.60;0.60;;;;;18.20;98699.00;;;;5114009;28;20186;-72
2022/07/05 06:21:28;;;;;;;0.60;0.60;;;;;18.30;98702.00;;;;5114266;28;20678;-71
2022/07/05 06:23:55;;;;;;;0.80;0.80;;;;;18.40;98700.00;;;;5117430;28;20231;-71
2022/07/05 06:26:22;;;;;;;0.90;0.90;;;;;18.50;98708.00;;;;5117456;28;20244;-72
2022/07/05 06:28:51;;;;;;;0.50;0.50;;;;;18.80;98705.00;;;;5117607;28;20709;-72
2022/07/05 06:31:18;;;;;;;0.53;0.53;;;;;18.70;98709.00;;;;5117477;28;20194;-71
2022/07/05 06:33:45;;;;;;;0.40;0.40;;;;;18.80;98707.00;;;;5117609;28;20280;-71
2022/07/05 06:36:12;;;;;;;0.50;0.50;;;;;18.90;98712.00;;;;5117448;28;20198;-71
2022/07/05 06:38:39;;;;;;;0.50;0.50;;;;;18.90;98707.00;;;;5117293;28;20228;-71
2022/07/05 06:41:06;;;;;;;0.60;0.60;;;;;19.00;98717.00;;;;5117324;28;20641;-72
2022/07/05 06:43:33;;;;;;;0.97;0.97;;;;;19.10;98718.00;;;;5117160;28;20232;-71
2022/07/05 06:46:01;;;;;;;0.77;0.77;;;;;19.30;98722.00;;;;5117309;28;20198;-71
2022/07/05 06:48:29;;;;;;;0.60;0.60;;;;;19.30;98719.00;;;;5099233;28;20583;-73
2022/07/05 06:50:56;;;;;;;0.53;0.53;;;;;19.40;98721.00;;;;5117285;28;20198;-70
2022/07/05 06:53:23;;;;;;;0.50;0.50;;;;;19.50;98730.00;;;;5117224;28;20691;-71
2022/07/05 06:55:52;;;;;;;2.27;1.27;;;;;19.70;98725.00;;;;5117048;28;20221;-70
2022/07/05 06:58:19;;;;;;;0.57;0.57;;;;;19.70;98730.00;;;;5117012;28;20205;-68
2022/07/05 07:00:46;;;;;;;0.67;0.67;;;;;19.80;98730.00;;;;5099080;28;20198;-71
2022/07/05 07:03:12;;;;;;;0.57;0.57;;;;;19.90;98722.00;;;;5117105;28;20676;-69
2022/07/05 07:05:40;;;;;;;0.60;0.60;;;;;19.90;98732.00;;;;5117006;28;20219;-70
2022/07/05 07:10:52;;;;;;;0.83;0.77;;;;;20.00;98724.00;;;;5119516;28;20267;-70
2022/07/05 07:13:19;;;;;;;0.50;0.50;;;;;20.10;98727.00;;;;5117212;28;20190;-70
2022/07/05 07:15:47;;;;;;;0.60;0.60;;;;;20.10;98731.00;;;;5116830;28;20202;-70
2022/07/05 07:18:16;;;;;;;0.60;0.60;;;;;20.10;98727.00;;;;5116749;28;20278;-69
2022/07/05 07:20:44;;;;;;;0.70;0.70;;;;;20.20;98729.00;;;;5098968;28;20560;-68
2022/07/05 07:23:11;;;;;;;0.70;0.70;;;;;20.30;98742.00;;;;5116676;28;20232;-68
2022/07/05 07:25:38;;;;;;;0.60;0.60;;;;;20.40;98735.00;;;;5116737;28;20197;-69
2022/07/05 07:28:07;;;;;;;0.50;0.50;;;;;20.50;98739.00;;;;5116551;28;20228;-69
2022/07/05 07:30:34;;;;;;;0.63;0.63;;;;;20.60;98738.00;;;;5116602;28;20190;-69
2022/07/05 07:33:01;;;;;;;0.50;0.50;;;;;20.60;98742.00;;;;5116349;28;20214;-70
2022/07/05 07:35:28;;;;;;;0.40;0.40;;;;;20.50;98739.00;;;;5116492;28;20214;-71
2022/07/05 07:37:57;;;;;;;0.50;0.50;;;;;20.60;98741.00;;;;5116594;28;20276;-70
2022/07/05 07:40:24;;;;;;;0.77;0.77;;;;;20.70;98744.00;;;;5116306;28;20260;-70
2022/07/05 07:42:53;;;;;;;0.50;0.50;;;;;20.70;98749.00;;;;5116239;28;20551;-68
2022/07/05 07:45:23;;;;;;;0.70;0.70;;;;;20.80;98744.00;;;;5098387;28;20198;-71
2022/07/05 07:47:49;;;;;;;0.50;0.50;;;;;20.80;98743.00;;;;5116258;28;20218;-69
2022/07/05 07:50:16;;;;;;;0.30;0.30;;;;;20.90;98748.00;;;;5116253;28;20202;-70
2022/07/05 07:52:44;;;;;;;0.40;0.40;;;;;21.00;98754.00;;;;5116259;28;20514;-71
2022/07/05 07:55:12;;;;;;;0.75;0.65;;;;;21.10;98756.00;;;;5116227;28;20217;-70
2022/07/05 07:57:39;;;;;;;0.60;0.60;;;;;21.10;98751.00;;;;5116246;28;20204;-71
2022/07/05 08:00:06;;;;;;;0.52;0.52;;;;;21.20;98755.00;;;;5116001;28;20208;-69
2022/07/05 08:02:33;;;;;;;0.93;0.93;;;;;21.30;98754.00;;;;5116092;28;20682;-70
2022/07/05 08:05:04;;;;;;;0.50;0.50;;;;;21.30;98752.00;;;;5098007;28;20283;-70
2022/07/05 08:07:31;;;;;;;0.50;0.50;;;;;21.40;98747.00;;;;5115927;28;20221;-70
2022/07/05 08:09:58;;;;;;;0.60;0.60;;;;;21.40;98756.00;;;;5116023;28;20225;-71
2022/07/05 08:12:26;;;;;;;0.50;0.50;;;;;21.70;98751.00;;;;5115896;28;20540;-70
2022/07/05 08:14:53;;;;;;;0.50;0.50;;;;;21.70;98749.00;;;;5115941;28;20205;-71
2022/07/05 08:17:21;;;;;;;0.50;0.50;;;;;21.70;98750.00;;;;5115858;28;20194;-71
2022/07/05 08:22:33;;;;;;;0.52;0.52;;;;;22.00;98751.00;;;;5115751;28;20213;-69
2022/07/05 08:25:00;;;;;;;0.55;0.55;;;;;21.90;98758.00;;;;5115667;28;20206;-68
2022/07/05 08:27:28;;;;;;;0.70;0.70;;;;;21.90;98764.00;;;;5115754;28;20190;-70
2022/07/05 08:29:57;;;;;;;0.75;0.65;;;;;22.10;98767.00;;;;5115609;28;20193;-68
2022/07/05 08:32:24;;;;;;;0.77;0.77;;;;;22.10;98754.00;;;;5115595;28;20237;-69
2022/07/05 08:34:51;;;;;;;0.50;0.50;;;;;21.90;98753.00;;;;5115685;28;20190;-69
2022/07/05 08:37:17;;;;;;;0.60;0.60;;;;;21.90;98755.00;;;;5115582;28;20204;-70
2022/07/05 08:39:44;;;;;;;0.50;0.50;;;;;22.10;98754.00;;;;5115511;28;20186;-71
2022/07/05 08:42:12;;;;;;;0.65;0.65;;;;;22.30;98759.00;;;;5097823;28;20645;-70
2022/07/05 08:44:41;;;;;;;0.50;0.50;;;;;22.40;98763.00;;;;5114581;28;20244;-69
2022/07/05 08:47:12;;;;;;;0.50;0.50;;;;;22.30;98754.00;;;;5115403;28;20197;-70
2022/07/05 08:49:40;;;;;;;1.10;1.00;;;;;22.40;98761.00;;;;5115442;28;20208;-70
2022/07/05 08:52:11;;;;;;;0.60;0.60;;;;;22.50;98750.00;;;;5115191;28;20233;-68
2022/07/05 08:54:38;;;;;;;0.73;0.73;;;;;22.60;98748.00;;;;5115486;28;20190;-69
2022/07/05 08:57:05;;;;;;;3.40;0.85;;;;;22.60;98757.00;;;;5115137;28;20277;-68
2022/07/05 08:59:32;;;;;;;0.40;0.40;;;;;22.60;98758.00;;;;5115137;28;20540;-70
2022/07/05 09:02:00;;;;;;;0.50;0.50;;;;;22.50;98752.00;;;;5097502;28;20511;-69
2022/07/05 09:04:30;;;;;;;0.45;0.45;;;;;22.90;98761.00;;;;5115074;28;20244;-70
2022/07/05 09:07:02;;;;;;;0.80;0.80;;;;;22.90;98762.00;;;;5115006;28;20280;-70
2022/07/05 09:09:30;;;;;;;0.50;0.50;;;;;23.20;98755.00;;;;5115029;28;20186;-70
2022/07/05 09:11:56;;;;;;;0.50;0.50;;;;;23.20;98752.00;;;;5114914;28;20213;-70
2022/07/05 09:14:25;;;;;;;3.25;1.48;;;;;23.40;98758.00;;;;5114989;28;20194;-69
2022/07/05 09:16:52;;;;;;;0.75;0.75;;;;;23.40;98754.00;;;;5114761;28;20205;-69
2022/07/05 09:19:20;;;;;;;0.52;0.52;;;;;23.40;98759.00;;;;5114902;28;20693;-70
2022/07/05 09:22:02;;;;;;;0.75;0.75;;;;;23.70;98753.00;;;;5114732;28;20187;-69
2022/07/05 09:24:30;;;;;;;0.68;0.68;;;;;23.70;98751.00;;;;5114689;28;20225;-70
2022/07/05 09:27:03;;;;;;;0.80;0.80;;;;;23.50;98753.00;;;;5114772;28;20305;-70
2022/07/05 09:29:31;;;;;;;0.60;0.60;;;;;23.70;98766.00;;;;5114826;28;20630;-70
2022/07/05 09:31:57;;;;;;;0.50;0.50;;;;;23.80;98771.00;;;;5114785;28;20190;-70
2022/07/05 09:34:27;;;;;;;0.40;0.40;;;;;23.90;98768.00;;;;5114651;28;20538;-70
2022/07/05 09:36:56;;;;;;;0.90;0.63;;;;;24.00;98768.00;;;;5114556;28;20225;-69
2022/07/05 09:39:39;;;;;;;0.50;0.50;;;;;23.90;98763.00;;;;5114597;28;20247;-70
2022/07/05 09:42:20;;;;;;;0.50;0.50;;;;;23.90;98766.00;;;;5096496;28;20220;-71
2022/07/05 09:44:51;;;;;;;0.45;0.45;;;;;24.00;98772.00;;;;5114561;28;20254;-70
2022/07/05 09:47:19;;;;;;;0.63;0.63;;;;;24.10;98768.00;;;;5114480;28;20275;-70
2022/07/05 09:49:49;;;;;;;0.50;0.50;;;;;24.20;98766.00;;;;5096663;28;20555;-69
2022/07/05 09:52:37;;;;;;;0.40;0.40;;;;;24.20;98776.00;;;;5114478;28;20506;-70
2022/07/05 09:55:06;;;;;;;0.50;0.50;;;;;24.30;98778.00;;;;5107305;28;20549;-70
2022/07/05 09:57:35;;;;;;;0.40;0.40;;;;;24.30;98763.00;;;;5114406;28;20190;-70
2022/07/05 10:00:03;;;;;;;0.60;0.60;;;;;24.40;98764.00;;;;5114287;28;20216;-70
2022/07/05 10:02:37;;;;;;;0.50;0.50;;;;;24.50;98765.00;;;;5114343;28;20299;-71
2022/07/05 10:05:12;;;;;;;0.40;0.40;;;;;24.60;98771.00;;;;5114956;28;20198;-70
2022/07/05 10:07:41;;;;;;;3.35;0.50;;;;;24.60;98769.00;;;;5116848;28;20209;-70
2022/07/05 10:10:09;;;;;;;0.50;0.50;;;;;24.80;98771.00;;;;5114114;28;20226;-69
2022/07/05 10:12:37;;;;;;;0.50;0.50;;;;;24.80;98766.00;;;;5114190;28;20254;-70
2022/07/05 10:15:08;;;;;;;0.40;0.40;;;;;24.80;98768.00;;;;5114050;28;20200;-69
2022/07/05 10:17:38;;;;;;;0.60;0.60;;;;;24.90;98761.00;;;;5095996;28;20221;-70
2022/07/05 10:20:09;;;;;;;0.75;0.73;;;;;24.90;98761.00;;;;5113986;28;20656;-70
2022/07/05 10:22:37;;;;;;;0.82;0.82;;;;;25.10;98751.00;;;;5096223;28;20546;-70
2022/07/05 10:25:07;;;;;;;0.55;0.55;;;;;25.10;98763.00;;;;5113972;28;20697;-70
2022/07/05 10:27:36;;;;;;;0.60;0.60;;;;;25.20;98766.00;;;;5113951;28;20205;-69
2022/07/05 10:30:04;;;;;;;0.70;0.70;;;;;25.10;98764.00;;;;5113985;28;20186;-72
2022/07/05 10:32:33;;;;;;;0.50;0.50;;;;;25.10;98763.00;;;;5113855;28;20617;-71
2022/07/05 10:35:02;;;;;;;0.50;0.50;;;;;24.90;98758.00;;;;5113711;28;20232;-71
2022/07/05 10:37:32;;;;;;;0.50;0.50;;;;;25.10;98764.00;;;;5113831;28;20216;-70
2022/07/05 10:40:01;;;;;;;0.50;0.50;;;;;25.20;98768.00;;;;5095869;28;20198;-70
2022/07/05 10:42:38;;;;;;;0.57;0.57;;;;;25.20;98765.00;;;;5113567;28;20297;-69
2022/07/05 10:45:26;;;;;;;0.50;0.50;;;;;25.60;98765.00;;;;5113774;28;20687;-68
2022/07/05 10:48:12;;;;;;;0.60;0.60;;;;;25.70;98763.00;;;;5113569;28;20240;-69
2022/07/05 10:50:45;;;;;;;0.50;0.50;;;;;25.90;98771.00;;;;5113634;28;20186;-70
2022/07/05 10:53:12;;;;;;;0.93;0.90;;;;;26.00;98768.00;;;;5113677;28;20798;-70
2022/07/05 10:55:49;;;;;;;0.55;0.55;;;;;26.30;98766.00;;;;5113502;28;20247;-70
2022/07/05 10:58:24;;;;;;;0.65;0.65;;;;;26.20;98760.00;;;;5113568;28;20202;-72
2022/07/05 11:01:24;;;;;;;0.60;0.60;;;;;26.20;98765.00;;;;5113345;28;20233;-70
2022/07/05 11:03:57;;;;;;;0.50;0.50;;;;;26.10;98764.00;;;;5113265;28;20222;-70
2022/07/05 11:06:25;;;;;;;0.50;0.50;;;;;26.30;98758.00;;;;5113465;28;20205;-70
2022/07/05 11:09:19;;;;;;;0.60;0.60;;;;;26.40;98762.00;;;;5114966;28;20223;-70
2022/07/05 11:11:48;;;;;;;0.38;0.38;;;;;26.30;98759.00;;;;5116876;28;20198;-70
2022/07/05 11:14:37;;;;;;;0.50;0.50;;;;;26.50;98769.00;;;;5116793;28;20287;-71
2022/07/05 11:17:25;;;;;;;0.47;0.47;;;;;26.40;98763.00;;;;5116801;28;20206;-71
2022/07/05 11:20:07;;;;;;;0.50;0.50;;;;;26.70;98763.00;;;;5116738;28;20205;-70
2022/07/05 11:22:35;;;;;;;0.50;0.50;;;;;26.60;98763.00;;;;5116689;28;20254;-70
2022/07/05 11:25:02;;;;;;;0.80;0.80;;;;;27.10;98761.00;;;;5116661;28;20190;-71
2022/07/05 11:27:32;;;;;;;0.52;0.52;;;;;27.20;98759.00;;;;5116580;28;20214;-71
2022/07/05 11:29:59;;;;;;;0.70;0.70;;;;;27.30;98759.00;;;;5116631;28;20209;-70
2022/07/05 11:32:36;;;;;;;0.70;0.70;;;;;27.40;98762.00;;;;5098587;28;20518;-72
2022/07/05 11:35:15;;;;;;;0.60;0.60;;;;;27.60;98757.00;;;;5116539;28;20202;-70
2022/07/05 11:38:02;;;;;;;0.50;0.50;;;;;27.70;98757.00;;;;5116531;28;20205;-68
2022/07/05 11:40:33;;;;;;;0.40;0.40;;;;;27.70;98752.00;;;;5116474;28;20222;-70
2022/07/05 11:43:03;;;;;;;0.73;0.73;;;;;28.00;98757.00;;;;5116367;28;20217;-71
2022/07/05 11:45:33;;;;;;;0.60;0.60;;;;;28.00;98747.00;;;;5116397;28;20651;-69
2022/07/05 11:48:01;;;;;;;0.50;0.50;;;;;28.20;98750.00;;;;5116354;28;20594;-70
2022/07/05 11:50:32;;;;;;;0.60;0.60;;;;;28.40;98755.00;;;;5116268;28;20194;-70
2022/07/05 11:52:59;;;;;;;1.00;0.68;;;;;28.60;98748.00;;;;5116542;28;20240;-72
2022/07/05 11:55:28;;;;;;;0.82;0.82;;;;;28.40;98743.00;;;;5117411;28;20628;-71
2022/07/05 11:57:56;;;;;;;0.60;0.60;;;;;28.20;98749.00;;;;5117066;28;20186;-70
2022/07/05 12:00:31;;;;;;;0.50;0.50;;;;;28.40;98736.00;;;;5116358;28;20194;-71
2022/07/05 12:03:00;;;;;;;0.60;0.60;;;;;27.60;98739.00;;;;5115986;28;20218;-70
2022/07/05 12:05:32;;;;;;;1.55;0.88;;;;;28.40;98735.00;;;;5115914;28;20221;-71
2022/07/05 12:07:59;;;;;;;1.02;1.02;;;;;28.80;98730.00;;;;5116004;28;20225;-70
2022/07/05 12:13:11;;;;;;;0.70;0.70;;;;;29.40;98735.00;;;;5115827;28;20230;-70
2022/07/05 12:15:39;;;;;;;0.50;0.50;;;;;29.40;98731.00;;;;5115754;28;20198;-70
2022/07/05 12:18:08;;;;;;;0.70;0.70;;;;;29.40;98731.00;;;;5115691;28;20198;-70
2022/07/05 12:20:36;;;;;;;0.55;0.55;;;;;29.60;98725.00;;;;5114578;28;20533;-70
2022/07/05 12:23:04;;;;;;;0.52;0.52;;;;;29.50;98728.00;;;;5115771;28;20279;-70
2022/07/05 12:25:33;;;;;;;0.60;0.60;;;;;29.70;98716.00;;;;5115695;28;20264;-70
2022/07/05 12:28:03;;;;;;;0.50;0.50;;;;;30.10;98721.00;;;;5115646;28;20233;-69
2022/07/05 12:30:32;;;;;;;0.88;0.88;;;;;30.10;98716.00;;;;5115705;28;20593;-70
2022/07/05 12:33:02;;;;;;;0.63;0.63;;;;;29.90;98736.00;;;;5115643;28;20297;-68
2022/07/05 12:35:35;;;;;;;0.80;0.80;;;;;29.30;98729.00;;;;5115571;28;20516;-70
2022/07/05 12:38:08;;;;;;;0.57;0.57;;;;;29.00;98744.00;;;;5115492;28;20253;-70